Time;durP1;ratioP1;P1;durP2;ratioP2;P2;SDS_P1;SDS_P2;PMS_P1;PMS_P2;Temp;Humidity;BMP_temperature;BMP_pressure;BME280_temperature;BME280_humidity;BME280_pressure;Samples;Min_cycle;Max_cycle;Signal;HPM_P1;HPM_P2
2023/03/20 00:01:46;;;;;;;15.60;13.90;;;12.70;1.00;;;;;;5045122;28;20458;-56
2023/03/20 00:04:12;;;;;;;15.77;14.03;;;12.60;1.00;;;;;;5052805;28;20177;-53
2023/03/20 00:06:37;;;;;;;16.83;14.50;;;12.60;1.00;;;;;;5043624;28;20524;-55
2023/03/20 00:09:03;;;;;;;17.60;14.80;;;12.60;1.00;;;;;;5047452;28;20203;-55
2023/03/20 00:11:41;;;;;;;15.57;14.07;;;12.60;1.00;;;;;;5047432;28;20200;-56
2023/03/20 00:14:09;;;;;;;16.10;13.40;;;12.60;1.00;;;;;;5059064;28;20448;-56
2023/03/20 00:16:37;;;;;;;16.80;14.43;;;12.60;1.00;;;;;;5061879;28;20450;-55
2023/03/20 00:19:05;;;;;;;17.67;15.77;;;12.50;1.00;;;;;;5043692;28;20520;-54
2023/03/20 00:21:31;;;;;;;16.57;14.70;;;12.50;1.00;;;;;;5047729;28;20894;-56
2023/03/20 00:23:57;;;;;;;20.17;14.30;;;12.50;1.00;;;;;;5048171;28;20427;-54
2023/03/20 00:26:32;;;;;;;16.10;14.00;;;12.50;1.00;;;;;;5049827;28;20442;-55
2023/03/20 00:28:58;;;;;;;15.87;13.17;;;12.50;1.00;;;;;;5051246;28;20541;-56
2023/03/20 00:31:26;;;;;;;16.40;14.17;;;12.50;1.00;;;;;;5058245;28;20522;-55
2023/03/20 00:33:59;;;;;;;15.40;13.10;;;12.50;1.00;;;;;;5046633;28;20450;-55
2023/03/20 00:36:25;;;;;;;11.80;10.60;;;12.60;1.00;;;;;;5056468;28;22319;-56
2023/03/20 00:38:51;;;;;;;14.60;12.50;;;12.80;1.00;;;;;;5044081;28;20474;-54
2023/03/20 00:41:38;;;;;;;13.87;12.47;;;12.80;1.00;;;;;;5041687;28;20450;-55
2023/03/20 00:44:13;;;;;;;14.60;13.10;;;13.50;1.00;;;;;;5054422;28;20447;-54
2023/03/20 00:46:39;;;;;;;16.30;12.73;;;12.50;1.00;;;;;;5050012;28;20450;-54
2023/03/20 00:49:05;;;;;;;15.17;13.50;;;12.40;1.00;;;;;;5050058;28;20442;-55
2023/03/20 00:51:31;;;;;;;17.43;13.23;;;12.30;1.00;;;;;;5046634;28;20814;-54
2023/03/20 00:53:57;;;;;;;14.80;13.07;;;12.40;1.00;;;;;;5047414;28;20474;-54
2023/03/20 00:56:33;;;;;;;15.93;12.90;;;12.30;1.00;;;;;;5049872;28;20847;-54
2023/03/20 00:59:01;;;;;;;15.30;12.60;;;12.30;1.00;;;;;;5052498;28;20461;-53
2023/03/20 01:01:28;;;;;;;15.37;13.73;;;12.30;1.00;;;;;;5049317;28;20439;-55
2023/03/20 01:03:54;;;;;;;15.60;12.20;;;12.30;1.00;;;;;;5046226;28;20546;-54
2023/03/20 01:06:19;;;;;;;17.63;12.83;;;12.30;1.00;;;;;;5053018;28;20530;-55
2023/03/20 01:08:47;;;;;;;16.40;13.57;;;12.40;1.00;;;;;;5048695;28;20212;-55
2023/03/20 01:11:15;;;;;;;15.17;13.57;;;12.30;1.00;;;;;;5050713;28;20577;-55
2023/03/20 01:13:41;;;;;;;14.50;13.10;;;12.30;1.00;;;;;;5050126;28;20500;-54
2023/03/20 01:16:19;;;;;;;15.50;13.67;;;12.30;1.00;;;;;;5047514;28;20831;-54
2023/03/20 01:18:45;;;;;;;15.93;12.80;;;12.30;1.00;;;;;;5055816;28;20208;-54
2023/03/20 01:21:11;;;;;;;15.17;13.50;;;12.30;1.00;;;;;;5057530;28;20442;-54
2023/03/20 01:23:36;;;;;;;14.57;12.43;;;12.30;1.00;;;;;;5048034;28;20232;-54
2023/03/20 01:26:02;;;;;;;13.57;12.27;;;12.30;1.00;;;;;;5046124;28;21014;-54
2023/03/20 01:28:30;;;;;;;13.13;11.50;;;12.30;1.00;;;;;;5050346;28;20196;-56
2023/03/20 01:30:55;;;;;;;14.83;13.30;;;12.30;1.00;;;;;;5053780;28;20450;-54
2023/03/20 01:33:25;;;;;;;14.90;13.43;;;12.20;1.00;;;;;;5049286;28;20506;-52
2023/03/20 01:35:51;;;;;;;17.63;13.30;;;12.20;1.00;;;;;;5051914;28;20265;-53
2023/03/20 01:38:23;;;;;;;16.83;13.10;;;12.10;1.00;;;;;;5047498;28;20971;-55
2023/03/20 01:41:16;;;;;;;14.37;12.97;;;12.20;1.00;;;;;;5052744;28;20462;-55
2023/03/20 01:43:44;;;;;;;15.83;13.00;;;12.20;1.00;;;;;;5053538;28;20439;-54
2023/03/20 01:46:30;;;;;;;16.53;13.10;;;12.20;1.00;;;;;;5051479;28;20446;-55
2023/03/20 01:49:07;;;;;;;16.50;13.63;;;12.20;1.00;;;;;;5050810;28;20439;-53
2023/03/20 01:51:34;;;;;;;16.70;13.70;;;12.20;1.00;;;;;;5057236;28;20869;-55
2023/03/20 01:54:07;;;;;;;18.20;13.83;;;12.10;1.00;;;;;;5049734;28;20482;-55
2023/03/20 01:56:42;;;;;;;16.17;14.60;;;12.10;1.00;;;;;;5052602;28;20450;-54
2023/03/20 01:59:18;;;;;;;16.27;13.97;;;12.10;1.00;;;;;;5057143;28;20462;-54
2023/03/20 02:01:44;;;;;;;16.70;15.00;;;12.10;1.00;;;;;;5059211;28;20477;-54
2023/03/20 02:04:12;;;;;;;18.07;15.70;;;12.10;1.00;;;;;;5047852;28;20443;-53
2023/03/20 02:06:39;;;;;;;17.53;15.60;;;12.10;1.00;;;;;;5046637;28;20534;-54
2023/03/20 02:09:05;;;;;;;17.57;15.70;;;12.10;1.00;;;;;;5050935;28;20804;-54
2023/03/20 02:11:30;;;;;;;18.13;15.73;;;12.00;1.00;;;;;;5044575;28;20542;-56
2023/03/20 02:13:59;;;;;;;17.97;15.63;;;12.10;1.00;;;;;;5050647;28;20184;-54
2023/03/20 02:16:26;;;;;;;18.30;16.43;;;12.10;1.00;;;;;;5046001;28;20562;-54
2023/03/20 02:18:55;;;;;;;17.40;15.70;;;12.00;1.00;;;;;;5045192;28;20991;-55
2023/03/20 02:21:39;;;;;;;17.80;15.90;;;12.10;1.00;;;;;;5044074;28;20440;-54
2023/03/20 02:24:17;;;;;;;23.60;17.60;;;12.10;1.00;;;;;;5046610;28;20439;-55
2023/03/20 02:27:05;;;;;;;17.97;15.73;;;12.10;1.00;;;;;;5052030;28;20749;-55
2023/03/20 02:29:58;;;;;;;16.30;14.47;;;12.00;1.00;;;;;;5049889;28;20533;-54
2023/03/20 02:32:39;;;;;;;17.40;15.70;;;12.10;1.00;;;;;;5048284;28;20470;-55
2023/03/20 02:35:21;;;;;;;20.10;17.60;;;12.20;1.00;;;;;;5046043;28;20455;-53
2023/03/20 02:37:53;;;;;;;18.17;16.37;;;12.20;1.00;;;;;;5045470;28;20508;-53
2023/03/20 02:40:47;;;;;;;19.53;17.30;;;12.20;1.00;;;;;;5048958;28;20433;-54
2023/03/20 02:43:20;;;;;;;20.53;17.47;;;12.20;1.00;;;;;;5046931;28;20524;-54
2023/03/20 02:45:49;;;;;;;19.73;17.00;;;12.20;1.00;;;;;;5046124;28;20994;-54
2023/03/20 02:48:29;;;;;;;23.30;16.63;;;12.10;1.00;;;;;;5055113;28;20451;-53
2023/03/20 02:51:15;;;;;;;17.80;16.00;;;12.20;1.00;;;;;;5045615;28;20473;-53
2023/03/20 02:54:03;;;;;;;18.40;16.00;;;12.10;1.00;;;;;;5044801;28;20482;-54
2023/03/20 02:56:56;;;;;;;19.70;17.53;;;12.10;1.00;;;;;;5037188;28;20455;-54
2023/03/20 02:59:29;;;;;;;17.90;16.07;;;12.10;1.00;;;;;;5054178;28;20549;-54
2023/03/20 03:02:14;;;;;;;17.63;15.77;;;12.10;1.00;;;;;;5056769;28;20439;-54
2023/03/20 03:04:52;;;;;;;18.53;16.57;;;12.00;1.00;;;;;;5046777;28;20861;-53
2023/03/20 03:07:23;;;;;;;18.27;16.37;;;12.00;1.00;;;;;;5046137;28;20439;-53
2023/03/20 03:10:02;;;;;;;19.13;16.80;;;12.00;1.00;;;;;;5049197;28;20504;-53
2023/03/20 03:12:33;;;;;;;22.47;17.23;;;12.00;1.00;;;;;;5049229;28;20572;-56
2023/03/20 03:15:02;;;;;;;18.37;16.43;;;12.00;1.00;;;;;;5053008;28;20450;-53
2023/03/20 03:17:33;;;;;;;21.13;16.93;;;12.00;1.00;;;;;;5049706;28;20443;-53
2023/03/20 03:20:04;;;;;;;19.63;17.53;;;12.00;1.00;;;;;;5044587;28;20467;-53
2023/03/20 03:22:33;;;;;;;18.60;16.70;;;11.90;1.00;;;;;;5053854;28;20458;-54
2023/03/20 03:24:58;;;;;;;20.27;17.00;;;11.90;1.00;;;;;;5041608;28;21338;-53
2023/03/20 03:27:36;;;;;;;18.70;16.70;;;11.80;1.00;;;;;;5040559;28;20447;-54
2023/03/20 03:30:06;;;;;;;22.23;18.13;;;11.90;1.00;;;;;;5047633;28;20203;-53
2023/03/20 03:32:35;;;;;;;19.67;17.30;;;11.90;1.00;;;;;;5049346;28;20441;-53
2023/03/20 03:35:05;;;;;;;19.40;17.10;;;11.90;1.00;;;;;;5059542;28;20487;-53
2023/03/20 03:37:45;;;;;;;20.73;18.63;;;11.90;1.00;;;;;;5045345;28;20447;-53
2023/03/20 03:40:19;;;;;;;20.57;17.93;;;11.80;1.00;;;;;;5040742;28;20451;-54
2023/03/20 03:42:52;;;;;;;21.17;17.93;;;11.90;1.00;;;;;;5041812;28;20509;-54
2023/03/20 03:45:43;;;;;;;21.33;18.83;;;11.80;1.00;;;;;;5053615;28;20451;-54
2023/03/20 03:48:17;;;;;;;21.97;19.67;;;11.80;1.00;;;;;;5043848;28;20445;-56
2023/03/20 03:51:06;;;;;;;23.37;18.13;;;11.90;1.00;;;;;;5044847;28;20450;-54
2023/03/20 03:53:39;;;;;;;22.43;18.47;;;11.80;1.00;;;;;;5043065;28;20977;-53
2023/03/20 03:56:08;;;;;;;22.90;18.43;;;11.70;1.00;;;;;;5046740;28;20447;-53
2023/03/20 03:58:44;;;;;;;21.90;19.50;;;11.70;1.00;;;;;;5044508;28;20462;-54
2023/03/20 04:01:11;;;;;;;22.03;19.03;;;11.70;1.00;;;;;;5048856;28;20450;-54
2023/03/20 04:03:40;;;;;;;21.00;18.47;;;11.70;1.00;;;;;;5049487;28;20528;-55
2023/03/20 04:06:10;;;;;;;23.00;19.33;;;11.70;1.00;;;;;;5052440;28;20454;-54
2023/03/20 04:08:35;;;;;;;22.40;17.80;;;11.70;1.00;;;;;;5045886;28;20454;-55
2023/03/20 04:11:01;;;;;;;24.60;19.77;;;11.70;1.00;;;;;;5049612;28;20538;-54
2023/03/20 04:13:27;;;;;;;25.70;20.17;;;11.70;1.00;;;;;;5050874;28;20254;-53
2023/03/20 04:15:52;;;;;;;23.30;19.17;;;11.60;1.00;;;;;;5047606;28;20198;-54
2023/03/20 04:18:18;;;;;;;23.60;19.87;;;11.60;1.00;;;;;;5048507;28;20681;-56
2023/03/20 04:20:45;;;;;;;22.43;19.13;;;11.60;1.00;;;;;;5053745;28;20191;-54
2023/03/20 04:23:11;;;;;;;23.77;18.50;;;11.70;1.00;;;;;;5056161;28;20449;-53
2023/03/20 04:25:37;;;;;;;20.13;18.03;;;11.60;1.00;;;;;;5048725;28;20443;-53
2023/03/20 04:28:03;;;;;;;20.37;18.07;;;11.70;1.00;;;;;;5048252;28;20505;-53
2023/03/20 04:30:28;;;;;;;21.00;18.30;;;11.70;1.00;;;;;;5051210;28;20180;-53
2023/03/20 04:32:54;;;;;;;17.90;16.00;;;11.80;1.00;;;;;;5050405;28;20189;-54
2023/03/20 04:35:20;;;;;;;17.77;15.87;;;11.80;1.00;;;;;;5058263;28;20177;-55
2023/03/20 04:37:45;;;;;;;18.50;16.17;;;11.80;1.00;;;;;;5044174;28;20195;-54
2023/03/20 04:40:12;;;;;;;19.00;16.47;;;11.80;1.00;;;;;;5051103;28;20907;-54
2023/03/20 04:42:38;;;;;;;18.00;15.70;;;11.90;1.00;;;;;;5053485;28;20198;-53
2023/03/20 04:45:04;;;;;;;18.20;16.30;;;11.90;1.00;;;;;;5051471;28;20451;-53
2023/03/20 04:47:30;;;;;;;18.77;15.83;;;11.80;1.00;;;;;;5044459;28;20242;-52
2023/03/20 04:49:56;;;;;;;17.00;15.27;;;11.80;1.00;;;;;;5053414;28;20454;-54
2023/03/20 04:52:21;;;;;;;18.73;16.70;;;11.70;1.00;;;;;;5049105;28;20581;-54
2023/03/20 04:54:47;;;;;;;18.37;16.03;;;11.60;1.00;;;;;;5046459;28;20745;-52
2023/03/20 04:57:12;;;;;;;18.53;15.13;;;11.70;1.00;;;;;;5056379;28;20184;-53
2023/03/20 04:59:38;;;;;;;16.13;14.00;;;11.70;1.00;;;;;;5048529;28;20567;-54
2023/03/20 05:02:04;;;;;;;16.30;14.23;;;11.70;1.00;;;;;;5048734;28;20660;-53
2023/03/20 05:04:30;;;;;;;15.50;13.47;;;11.70;1.00;;;;;;5048591;28;20197;-54
2023/03/20 05:06:56;;;;;;;15.93;13.83;;;11.70;1.00;;;;;;5049770;28;20226;-54
2023/03/20 05:09:21;;;;;;;18.43;15.27;;;11.70;1.00;;;;;;5056369;28;20191;-54
2023/03/20 05:11:47;;;;;;;15.57;13.93;;;11.70;1.00;;;;;;5041644;28;21024;-54
2023/03/20 05:14:12;;;;;;;15.30;13.50;;;11.70;1.00;;;;;;5049454;28;20177;-53
2023/03/20 05:16:38;;;;;;;13.53;12.10;;;11.80;1.00;;;;;;5047480;28;20678;-52
2023/03/20 05:19:04;;;;;;;15.07;11.90;;;11.80;1.00;;;;;;5045996;28;20763;-55
2023/03/20 05:21:30;;;;;;;12.57;11.27;;;11.80;1.00;;;;;;5049678;28;20504;-53
2023/03/20 05:23:56;;;;;;;13.90;12.50;;;11.80;1.00;;;;;;5044192;28;20447;-54
2023/03/20 05:26:21;;;;;;;13.57;12.17;;;11.80;1.00;;;;;;5046897;28;20263;-54
2023/03/20 05:28:47;;;;;;;12.87;11.50;;;11.90;1.00;;;;;;5050660;28;20215;-54
2023/03/20 05:31:13;;;;;;;11.73;10.53;;;11.90;1.00;;;;;;5045462;28;20201;-54
2023/03/20 05:33:38;;;;;;;12.83;11.57;;;11.90;1.00;;;;;;5055654;28;20227;-53
2023/03/20 05:36:05;;;;;;;13.77;12.20;;;12.00;1.00;;;;;;5064285;28;20272;-55
2023/03/20 05:38:30;;;;;;;17.50;12.43;;;12.10;1.00;;;;;;5051325;28;20315;-55
2023/03/20 05:40:59;;;;;;;17.30;13.57;;;12.20;1.00;;;;;;5054802;28;20538;-54
2023/03/20 05:43:27;;;;;;;10.20;9.23;;;12.20;1.00;;;;;;5051294;28;20193;-53
2023/03/20 05:45:55;;;;;;;14.00;10.10;;;12.40;1.00;;;;;;5050617;28;20474;-56
2023/03/20 05:48:21;;;;;;;9.27;8.40;;;12.50;1.00;;;;;;5043881;28;20447;-53
2023/03/20 05:50:46;;;;;;;8.00;6.97;;;12.60;1.00;;;;;;5046800;28;21053;-54
2023/03/20 05:53:12;;;;;;;8.33;6.67;;;12.70;1.00;;;;;;5048929;28;20454;-57
2023/03/20 05:55:38;;;;;;;6.10;5.30;;;12.70;1.00;;;;;;5065425;28;20203;-53
2023/03/20 05:58:05;;;;;;;5.80;5.20;;;12.80;1.00;;;;;;5059495;28;20271;-54
2023/03/20 06:00:30;;;;;;;5.07;4.57;;;12.90;1.00;;;;;;5050200;28;20192;-53
2023/03/20 06:02:56;;;;;;;6.83;5.40;;;12.90;1.00;;;;;;5050554;28;20447;-54
2023/03/20 06:05:21;;;;;;;4.50;4.13;;;12.90;1.00;;;;;;5049143;28;20192;-56
2023/03/20 06:07:47;;;;;;;5.70;4.23;;;12.80;1.00;;;;;;5051137;28;20211;-55
2023/03/20 06:10:13;;;;;;;8.53;6.80;;;12.80;1.00;;;;;;5048537;28;20235;-54
2023/03/20 06:12:39;;;;;;;7.67;6.97;;;12.90;1.00;;;;;;5048865;28;20604;-54
2023/03/20 06:15:05;;;;;;;7.40;6.67;;;13.00;1.00;;;;;;5049412;28;20196;-54
2023/03/20 06:17:30;;;;;;;8.10;5.77;;;13.00;1.00;;;;;;5045322;28;20180;-53
2023/03/20 06:19:56;;;;;;;6.00;4.87;;;13.10;1.00;;;;;;5049845;28;20990;-54
2023/03/20 06:22:22;;;;;;;6.10;3.80;;;13.10;1.00;;;;;;5046466;28;20584;-53
2023/03/20 06:24:47;;;;;;;4.90;4.37;;;13.10;1.00;;;;;;5050745;28;20184;-57
2023/03/20 06:27:13;;;;;;;4.93;4.43;;;13.20;1.00;;;;;;5055086;28;21039;-55
2023/03/20 06:29:39;;;;;;;4.27;3.90;;;13.10;1.00;;;;;;5059811;28;20253;-55
2023/03/20 06:32:09;;;;;;;4.60;4.20;;;13.20;1.00;;;;;;5051408;28;20279;-54
2023/03/20 06:34:36;;;;;;;5.30;4.17;;;13.10;1.00;;;;;;5049830;28;20451;-54
2023/03/20 06:37:02;;;;;;;7.50;3.90;;;13.00;1.00;;;;;;5046576;28;20455;-54
2023/03/20 06:39:27;;;;;;;4.30;3.90;;;13.00;1.00;;;;;;5054688;28;20625;-53
2023/03/20 06:41:53;;;;;;;5.50;4.20;;;12.90;1.00;;;;;;5048625;28;20424;-54
2023/03/20 06:44:19;;;;;;;4.20;3.80;;;13.00;1.00;;;;;;5052797;28;20198;-53
2023/03/20 06:46:45;;;;;;;4.10;3.80;;;13.00;1.00;;;;;;5048886;28;20688;-54
2023/03/20 06:49:10;;;;;;;5.03;3.83;;;12.90;1.00;;;;;;5046840;28;20211;-55
2023/03/20 06:51:36;;;;;;;4.77;3.87;;;12.90;1.00;;;;;;5049718;28;20192;-54
2023/03/20 06:54:01;;;;;;;4.80;4.40;;;13.00;1.00;;;;;;5048018;28;20231;-53
2023/03/20 06:56:27;;;;;;;4.47;4.07;;;13.00;1.00;;;;;;5046651;28;20672;-53
2023/03/20 06:58:53;;;;;;;4.70;3.70;;;13.00;1.00;;;;;;5049137;28;20299;-52
2023/03/20 07:01:19;;;;;;;5.00;3.60;;;13.00;1.00;;;;;;5056039;28;20650;-53
2023/03/20 07:03:45;;;;;;;6.03;4.03;;;13.10;1.00;;;;;;5061161;28;20666;-55
2023/03/20 07:06:12;;;;;;;4.30;4.00;;;13.20;1.00;;;;;;5049180;28;20435;-53
2023/03/20 07:08:38;;;;;;;4.30;4.00;;;13.20;1.00;;;;;;5048501;28;20978;-52
2023/03/20 07:11:04;;;;;;;4.80;4.10;;;13.20;1.00;;;;;;5049320;28;20442;-54
2023/03/20 07:13:32;;;;;;;8.20;4.30;;;13.20;1.00;;;;;;5044919;28;20542;-54
2023/03/20 07:16:00;;;;;;;5.97;4.43;;;13.30;1.00;;;;;;5049378;28;20447;-53
2023/03/20 07:18:25;;;;;;;4.63;4.23;;;13.80;1.00;;;;;;5050955;28;20556;-54
2023/03/20 07:20:52;;;;;;;6.00;5.40;;;13.80;1.00;;;;;;5048539;28;21035;-54
2023/03/20 07:23:18;;;;;;;4.63;4.20;;;13.90;1.00;;;;;;5047685;28;20646;-55
2023/03/20 07:25:45;;;;;;;7.50;4.67;;;14.00;1.00;;;;;;5048875;28;20438;-54
2023/03/20 07:28:11;;;;;;;6.50;3.87;;;14.20;1.00;;;;;;5047080;28;20185;-53
2023/03/20 07:30:37;;;;;;;5.17;4.73;;;14.30;1.00;;;;;;5051443;28;20805;-55
2023/03/20 07:33:03;;;;;;;5.47;5.07;;;14.50;1.00;;;;;;5048187;28;20203;-53
2023/03/20 07:35:28;;;;;;;4.70;4.30;;;14.40;1.00;;;;;;5049608;28;20188;-55
2023/03/20 07:37:54;;;;;;;5.07;4.67;;;14.40;1.00;;;;;;5043715;28;20451;-53
2023/03/20 07:40:20;;;;;;;7.17;4.40;;;14.60;1.00;;;;;;5046803;28;20267;-54
2023/03/20 07:42:46;;;;;;;6.93;5.90;;;14.60;1.00;;;;;;5047731;28;20246;-54
2023/03/20 07:45:13;;;;;;;5.63;5.13;;;14.70;1.00;;;;;;5048607;28;20181;-54
2023/03/20 07:47:39;;;;;;;5.77;4.67;;;14.80;1.00;;;;;;5048032;28;20840;-55
2023/03/20 07:50:05;;;;;;;4.90;4.40;;;14.90;1.00;;;;;;5048226;28;20539;-55
2023/03/20 07:52:30;;;;;;;5.00;4.60;;;15.00;1.00;;;;;;5044864;28;20458;-54
2023/03/20 07:54:56;;;;;;;5.23;4.73;;;15.20;1.00;;;;;;5046490;28;20478;-54
2023/03/20 07:57:22;;;;;;;6.40;4.70;;;15.40;1.00;;;;;;5040773;28;20184;-55
2023/03/20 07:59:47;;;;;;;7.50;5.00;;;15.60;1.00;;;;;;5045752;28;20220;-55
2023/03/20 08:02:15;;;;;;;6.33;5.70;;;15.50;1.00;;;;;;5048127;28;20284;-54
2023/03/20 08:04:41;;;;;;;8.93;5.43;;;15.30;1.00;;;;;;5049716;28;20184;-55
2023/03/20 08:07:07;;;;;;;7.73;5.57;;;15.10;1.00;;;;;;5049555;28;20506;-54
2023/03/20 08:09:32;;;;;;;7.43;5.33;;;14.80;1.00;;;;;;5048360;28;20896;-56
2023/03/20 08:11:58;;;;;;;6.73;5.30;;;14.70;1.00;;;;;;5052899;28;20263;-54
2023/03/20 08:14:24;;;;;;;5.97;5.37;;;14.40;1.00;;;;;;5051226;28;20250;-54
2023/03/20 08:16:49;;;;;;;8.10;5.90;;;14.30;1.00;;;;;;5047092;28;20180;-55
2023/03/20 08:19:15;;;;;;;6.03;5.43;;;14.30;1.00;;;;;;5049783;28;20212;-55
2023/03/20 08:21:40;;;;;;;6.87;5.60;;;14.40;1.00;;;;;;5046869;28;20201;-54
2023/03/20 08:24:07;;;;;;;5.63;5.10;;;14.60;1.00;;;;;;5049216;28;20179;-55
2023/03/20 08:26:33;;;;;;;5.30;4.80;;;14.60;1.00;;;;;;5041408;28;20184;-54
2023/03/20 08:28:59;;;;;;;5.30;4.63;;;14.60;1.00;;;;;;5048107;28;20439;-54
2023/03/20 08:31:24;;;;;;;6.37;5.70;;;14.60;1.00;;;;;;5045753;28;20528;-54
2023/03/20 08:33:50;;;;;;;5.47;4.97;;;14.50;1.00;;;;;;5047753;28;20184;-55
2023/03/20 08:36:19;;;;;;;5.53;5.03;;;14.40;1.00;;;;;;5053908;28;20224;-54
2023/03/20 08:38:45;;;;;;;6.63;6.03;;;14.60;1.00;;;;;;5048536;28;20474;-54
2023/03/20 08:41:11;;;;;;;6.07;5.10;;;14.50;1.00;;;;;;5051848;28;20443;-55
2023/03/20 08:43:36;;;;;;;7.20;6.50;;;14.40;1.00;;;;;;5046473;28;20512;-54
2023/03/20 08:46:03;;;;;;;7.40;5.60;;;14.60;1.00;;;;;;5049596;28;20208;-54
2023/03/20 08:48:28;;;;;;;11.60;6.47;;;14.60;1.00;;;;;;5051150;28;20280;-54
2023/03/20 08:50:54;;;;;;;9.00;7.20;;;14.50;1.00;;;;;;5046650;28;20908;-54
2023/03/20 08:53:20;;;;;;;9.50;6.20;;;14.50;1.00;;;;;;5044954;28;20181;-55
2023/03/20 08:55:50;;;;;;;7.27;6.33;;;14.40;1.00;;;;;;5045325;28;20200;-54
2023/03/20 08:58:16;;;;;;;7.50;6.70;;;14.50;1.00;;;;;;5043935;28;20203;-54
2023/03/20 09:00:43;;;;;;;9.50;7.70;;;14.60;1.00;;;;;;5046244;28;20478;-54
2023/03/20 09:03:13;;;;;;;8.90;8.00;;;14.60;1.00;;;;;;5049249;28;20966;-55
2023/03/20 09:05:39;;;;;;;11.00;9.00;;;14.80;1.00;;;;;;5049357;28;20568;-54
2023/03/20 09:08:05;;;;;;;10.93;8.70;;;14.70;1.00;;;;;;5047110;28;20477;-55
2023/03/20 09:10:31;;;;;;;13.80;9.77;;;14.80;1.00;;;;;;5040453;28;21016;-54
2023/03/20 09:12:57;;;;;;;12.67;9.87;;;14.90;1.00;;;;;;5048599;28;20801;-54
2023/03/20 09:15:23;;;;;;;12.87;9.60;;;14.80;1.00;;;;;;5042999;28;20450;-56
2023/03/20 09:17:48;;;;;;;12.30;10.03;;;14.90;1.00;;;;;;5043471;28;20184;-54
2023/03/20 09:20:14;;;;;;;13.57;10.97;;;15.10;1.00;;;;;;5047431;28;20213;-54
2023/03/20 09:22:41;;;;;;;12.80;10.17;;;15.00;1.00;;;;;;5042429;28;20185;-55
2023/03/20 09:25:07;;;;;;;14.20;11.80;;;15.10;1.00;;;;;;5049960;28;20195;-54
2023/03/20 09:27:33;;;;;;;15.23;11.47;;;15.20;1.00;;;;;;5051009;28;20434;-55
2023/03/20 09:29:58;;;;;;;15.33;11.97;;;15.30;1.00;;;;;;5042257;28;20845;-54
2023/03/20 09:32:24;;;;;;;15.13;12.00;;;15.20;1.00;;;;;;5049977;28;20238;-56
2023/03/20 09:34:50;;;;;;;19.40;12.83;;;15.30;1.00;;;;;;5049933;28;20184;-54
2023/03/20 09:37:15;;;;;;;16.03;13.97;;;15.40;1.00;;;;;;5052997;28;20218;-54
2023/03/20 09:39:41;;;;;;;16.80;13.93;;;15.50;1.00;;;;;;5047858;28;20220;-54
2023/03/20 09:42:28;;;;;;;21.47;15.07;;;15.40;1.00;;;;;;5043901;28;20192;-55
2023/03/20 09:45:19;;;;;;;22.10;14.60;;;15.40;1.00;;;;;;5047750;28;20238;-54
2023/03/20 09:48:04;;;;;;;18.67;14.43;;;15.40;1.00;;;;;;5050801;28;20982;-55
2023/03/20 09:50:39;;;;;;;20.27;15.30;;;15.30;1.00;;;;;;5051023;28;20429;-54
2023/03/20 09:53:14;;;;;;;19.07;14.23;;;15.20;1.00;;;;;;5049913;28;20783;-55
2023/03/20 09:55:41;;;;;;;19.60;14.37;;;15.20;1.00;;;;;;5046213;28;20994;-54
2023/03/20 09:58:24;;;;;;;21.00;16.10;;;15.20;1.00;;;;;;5047042;28;20446;-54
2023/03/20 10:00:50;;;;;;;20.17;16.70;;;15.20;1.00;;;;;;5049763;28;20445;-53
2023/03/20 10:03:42;;;;;;;21.90;18.80;;;15.10;1.00;;;;;;5049355;28;20471;-55
2023/03/20 10:06:13;;;;;;;24.03;17.97;;;15.00;1.00;;;;;;5049664;28;20450;-58
2023/03/20 10:08:41;;;;;;;26.17;18.60;;;15.10;1.00;;;;;;5049787;28;20442;-55
2023/03/20 10:11:42;;;;;;;25.67;19.60;;;15.20;1.00;;;;;;5050222;28;20443;-54
2023/03/20 10:14:31;;;;;;;25.67;18.70;;;15.30;1.00;;;;;;4987241;28;20457;-55
2023/03/20 10:17:30;;;;;;;27.47;19.53;;;15.30;1.00;;;;;;5047368;28;20443;-54
2023/03/20 10:20:19;;;;;;;22.23;17.03;;;15.20;1.00;;;;;;5049082;28;20496;-55
2023/03/20 10:22:49;;;;;;;23.07;18.07;;;15.20;1.00;;;;;;5048494;28;20483;-53
2023/03/20 10:25:25;;;;;;;22.87;17.70;;;15.20;1.00;;;;;;5066569;28;20426;-54
2023/03/20 10:28:02;;;;;;;29.47;19.10;;;15.40;1.00;;;;;;5062054;28;20491;-55
2023/03/20 10:30:42;;;;;;;25.90;18.37;;;15.70;1.00;;;;;;5059981;28;20982;-55
2023/03/20 10:33:25;;;;;;;30.43;19.40;;;16.00;1.00;;;;;;5046710;28;20466;-54
2023/03/20 10:36:37;;;;;;;24.13;18.90;;;16.00;1.00;;;;;;5047377;28;20427;-56
2023/03/20 10:39:15;;;;;;;21.30;17.63;;;16.10;1.00;;;;;;5048283;28;20463;-55
2023/03/20 10:41:46;;;;;;;24.87;18.37;;;16.30;1.00;;;;;;5048381;28;20445;-55
2023/03/20 10:44:24;;;;;;;25.13;17.70;;;16.30;1.00;;;;;;5049572;28;20518;-55
2023/03/20 10:46:52;;;;;;;25.77;18.97;;;16.30;1.00;;;;;;5048322;28;20478;-56
2023/03/20 10:49:31;;;;;;;23.30;16.50;;;16.30;1.00;;;;;;5048212;28;20478;-54
2023/03/20 10:52:05;;;;;;;22.20;17.10;;;16.30;1.00;;;;;;5046775;28;20986;-55
2023/03/20 10:54:34;;;;;;;21.10;17.60;;;16.10;1.00;;;;;;5047153;28;20485;-55
2023/03/20 10:57:03;;;;;;;23.40;17.27;;;16.30;1.00;;;;;;5048525;28;20995;-56
2023/03/20 10:59:39;;;;;;;22.93;16.63;;;16.30;1.00;;;;;;5046923;28;20938;-55
2023/03/20 11:02:13;;;;;;;22.70;17.43;;;16.30;1.00;;;;;;5048407;28;20778;-54
2023/03/20 11:04:39;;;;;;;23.53;18.70;;;16.20;1.00;;;;;;5048212;28;20451;-55
2023/03/20 11:07:19;;;;;;;21.90;16.83;;;16.00;1.00;;;;;;5048936;28;20677;-54
2023/03/20 11:09:45;;;;;;;21.77;16.90;;;15.70;1.00;;;;;;5047422;28;20491;-54
2023/03/20 11:12:19;;;;;;;19.23;15.50;;;15.60;1.00;;;;;;5054124;28;20438;-60
2023/03/20 11:14:45;;;;;;;19.63;15.90;;;15.70;1.00;;;;;;5045626;28;20454;-55
2023/03/20 11:17:11;;;;;;;18.40;16.20;;;15.90;1.00;;;;;;5048128;28;20479;-54
2023/03/20 11:19:40;;;;;;;19.17;14.30;;;16.20;1.00;;;;;;5046826;28;20569;-55
2023/03/20 11:22:23;;;;;;;21.83;15.83;;;16.60;1.00;;;;;;5045700;28;20449;-55
2023/03/20 11:25:00;;;;;;;18.73;14.40;;;16.70;1.00;;;;;;5045767;28;21010;-55
2023/03/20 11:27:28;;;;;;;19.37;14.80;;;16.60;1.00;;;;;;5048722;28;20477;-55
2023/03/20 11:29:55;;;;;;;15.60;13.77;;;16.50;1.00;;;;;;5033651;28;20525;-54
2023/03/20 11:32:29;;;;;;;18.90;14.90;;;16.20;1.00;;;;;;5047143;28;20530;-55
2023/03/20 11:34:58;;;;;;;18.40;14.57;;;15.90;1.00;;;;;;5043791;28;20447;-55
2023/03/20 11:37:28;;;;;;;17.43;13.83;;;16.00;1.00;;;;;;5046712;28;20541;-55
2023/03/20 11:40:22;;;;;;;18.33;14.83;;;16.20;1.00;;;;;;5046521;28;20466;-55
2023/03/20 11:43:07;;;;;;;17.40;14.07;;;16.60;1.00;;;;;;5040966;28;20450;-55
2023/03/20 11:45:38;;;;;;;17.87;13.90;;;16.90;1.00;;;;;;5047463;28;20438;-56
2023/03/20 11:48:05;;;;;;;19.10;14.70;;;17.20;1.00;;;;;;5047638;28;20442;-54
2023/03/20 11:50:33;;;;;;;18.13;14.83;;;17.20;1.00;;;;;;5044593;28;20794;-55
2023/03/20 11:53:28;;;;;;;17.37;13.47;;;17.00;1.00;;;;;;5049834;28;20450;-56
2023/03/20 11:56:11;;;;;;;18.10;14.57;;;16.90;1.00;;;;;;5037193;28;20488;-56
2023/03/20 11:58:55;;;;;;;22.87;16.00;;;17.00;1.00;;;;;;5046500;28;20866;-55
2023/03/20 12:01:21;;;;;;;17.53;15.60;;;17.00;1.00;;;;;;5043669;28;20458;-54
2023/03/20 12:03:54;;;;;;;19.53;14.60;;;17.00;1.00;;;;;;5047372;28;20808;-56
2023/03/20 12:06:36;;;;;;;18.40;15.23;;;17.10;1.00;;;;;;5046652;28;20438;-55
2023/03/20 12:09:06;;;;;;;23.33;16.70;;;17.20;1.00;;;;;;5047126;28;20605;-54
2023/03/20 12:11:50;;;;;;;18.30;15.20;;;17.20;1.00;;;;;;5048208;28;20924;-54
2023/03/20 12:14:32;;;;;;;17.53;15.10;;;16.90;1.00;;;;;;5042210;28;20951;-55
2023/03/20 12:17:25;;;;;;;18.70;16.27;;;16.70;1.00;;;;;;5048573;28;20409;-54
2023/03/20 12:19:55;;;;;;;20.67;17.17;;;16.80;1.00;;;;;;5049049;28;20471;-55
2023/03/20 12:22:26;;;;;;;20.97;17.87;;;16.60;1.00;;;;;;5052247;28;21073;-56
2023/03/20 12:25:15;;;;;;;20.87;16.73;;;16.60;1.00;;;;;;5047786;28;20620;-54
2023/03/20 12:27:47;;;;;;;22.73;16.80;;;16.40;1.00;;;;;;5053966;28;21194;-55
2023/03/20 12:30:44;;;;;;;22.90;17.63;;;16.30;1.00;;;;;;5050901;28;20450;-55
2023/03/20 12:33:18;;;;;;;22.07;17.30;;;16.40;1.00;;;;;;5048664;28;20943;-54
2023/03/20 12:35:48;;;;;;;20.93;17.17;;;16.20;1.00;;;;;;5051984;28;20438;-56
2023/03/20 12:38:30;;;;;;;23.90;19.03;;;16.20;1.00;;;;;;5049577;28;20526;-55
2023/03/20 12:41:16;;;;;;;24.50;18.47;;;16.10;1.00;;;;;;5052518;28;20443;-54
2023/03/20 12:44:24;;;;;;;22.37;17.37;;;15.90;1.00;;;;;;5050091;28;20434;-54
2023/03/20 12:47:24;;;;;;;26.03;19.30;;;15.70;1.00;;;;;;5046804;28;20435;-56
2023/03/20 12:49:55;;;;;;;24.37;18.50;;;15.90;1.00;;;;;;5048082;28;20453;-54
2023/03/20 12:53:03;;;;;;;29.43;20.77;;;15.90;1.00;;;;;;5049551;28;20874;-55
2023/03/20 12:55:45;;;;;;;22.97;18.77;;;15.90;1.00;;;;;;5028387;28;20835;-54
2023/03/20 12:58:28;;;;;;;27.23;19.37;;;15.90;1.00;;;;;;5052641;28;20462;-56
2023/03/20 13:01:04;;;;;;;22.70;17.93;;;16.00;1.00;;;;;;5048736;28;20533;-54
2023/03/20 13:03:35;;;;;;;25.83;18.37;;;16.10;1.00;;;;;;5051020;28;20470;-55